Canova, South Dakota
Current Conditions -  °F | °C
As of 2:15 PM on Thursday 23 Oct 2014 (Local Time) from KMDS Reporting Station
Clear Clear  
Wind Chill: 66°   Ceiling: Unl
Heat Index: 66°   Visibility: 10mi
Dew Point: 39°   Wind: 14mph
Humidity: 37%   Direction: 230°SW
Pressure: 29.98"   Gusts: 21mph
Location:  43.88°N, 97.5°W
Report Text: KMDS 231915Z AUTO 23012G18KT 10SM CLR 19/04 A2998 RMK AO2
Loading
Personal Weather Stations






























Interactive Weather Map
Tropical Storm Tracking
New forecast layout! Learn more

10-Day Weather Forecast

Advertisements
Track Severe Weather on mobile